.
WxDataArchive / Data Records for 2013-07-18
2013-07-17 July 2013 2013-07-19

Data Records for Thursday, 18 July 2013

Time	Temp	Chill	HIndex	Humid	Dewpt	 Wind 	HiWind	WindDir	Rain 	Barom 
-----	----	-----	------	-----	-----	------	------	-------	-----	----- 
00:00	79.0	79.0	82.2	80	72.3	0	0	---	0.00	30.168 
00:05	78.8	78.8	81.8	80	72.1	0	0	---	0.00	30.168 
00:10	78.6	78.6	81.4	80	71.9	0	0	---	0.00	30.168 
00:15	78.6	78.6	81.5	81	72.3	0	0	---	0.00	30.167 
00:20	78.5	78.5	81.3	81	72.2	0	0	---	0.00	30.167 
00:25	78.5	78.5	81.3	81	72.2	0	0	---	0.00	30.167 
00:30	78.3	78.3	80.9	82	72.3	0	0	---	0.00	30.164 
00:35	78.3	78.3	80.9	82	72.3	0	0	---	0.00	30.164 
00:40	78.1	78.1	80.5	82	72.1	0	0	---	0.00	30.164 
00:45	78.1	78.1	80.5	82	72.1	0	0	---	0.00	30.164 
00:50	77.9	77.9	80.2	83	72.3	0	0	---	0.00	30.164 
00:55	77.7	77.7	79.8	83	72.1	0	0	---	0.00	30.164 
01:00	77.7	77.7	79.8	83	72.1	0	0	---	0.00	30.159 
01:05	77.6	77.6	79.6	83	72.0	0	0	---	0.00	30.159 
01:10	77.6	77.6	79.6	84	72.4	0	0	---	0.00	30.159 
01:15	77.4	77.4	79.2	84	72.2	0	0	---	0.00	30.157 
01:20	77.4	77.4	79.2	84	72.2	0	0	---	0.00	30.157 
01:25	77.4	77.4	79.2	84	72.2	0	0	---	0.00	30.157 
01:30	77.2	77.2	78.8	84	72.0	0	0	---	0.00	30.158 
01:35	77.2	77.2	78.8	84	72.0	0	0	---	0.00	30.158 
01:40	77.2	77.2	78.8	85	72.3	0	0	---	0.00	30.158 
01:45	77.2	77.2	78.8	85	72.3	0	0	---	0.00	30.155 
01:50	77.0	77.0	78.4	85	72.1	0	0	---	0.00	30.155 
01:55	77.0	77.0	78.4	85	72.1	0	0	---	0.00	30.155 
02:00	77.0	77.0	78.4	85	72.1	0	0	---	0.00	30.152 
02:05	77.0	77.0	78.4	86	72.5	0	0	---	0.00	30.152 
02:10	77.0	77.0	78.4	86	72.5	0	0	---	0.00	30.152 
02:15	77.0	77.0	78.4	86	72.5	0	0	---	0.00	30.150 
02:20	77.0	77.0	78.4	86	72.5	0	0	---	0.00	30.150 
02:25	77.0	77.0	78.4	86	72.5	0	0	---	0.00	30.150 
02:30	77.0	77.0	78.4	86	72.5	0	0	---	0.00	30.150 
02:35	76.8	76.8	78.0	86	72.3	0	0	---	0.00	30.150 
02:40	76.7	76.7	77.8	86	72.2	0	0	---	0.00	30.150 
02:45	76.7	76.7	77.7	87	72.5	0	0	---	0.00	30.149 
02:50	76.5	76.5	77.3	87	72.3	0	0	---	0.00	30.149 
02:55	76.5	76.5	77.3	87	72.3	0	0	---	0.00	30.149 
03:00	76.5	76.5	77.3	87	72.3	0	0	---	0.00	30.149 
03:05	76.3	76.3	76.9	87	72.1	0	0	---	0.00	30.149 
03:10	76.3	76.3	76.8	88	72.5	0	0	---	0.00	30.149 
03:15	76.3	76.3	76.8	88	72.5	0	0	---	0.00	30.148 
03:20	76.3	76.3	76.8	88	72.5	0	0	---	0.00	30.148 
03:25	76.3	76.3	76.8	88	72.5	0	0	---	0.00	30.148 
03:30	76.3	76.3	76.8	88	72.5	0	0	---	0.00	30.148 
03:35	76.3	76.3	76.8	88	72.5	0	0	---	0.00	30.148 
03:40	76.3	76.3	76.9	87	72.1	0	0	---	0.00	30.148 
03:45	76.5	76.5	77.3	87	72.3	0	0	---	0.00	30.144 
03:50	76.5	76.5	77.3	87	72.3	0	0	---	0.00	30.144 
03:55	76.3	76.3	76.9	87	72.1	0	0	---	0.00	30.144 
04:00	76.3	76.3	76.9	87	72.1	0	0	---	0.00	30.137 
04:05	76.3	76.3	76.9	87	72.1	0	0	---	0.00	30.137 
04:10	76.3	76.3	76.9	87	72.1	0	0	---	0.00	30.137 
04:15	76.1	76.1	76.6	87	71.9	0	0	---	0.00	30.138 
04:20	76.1	76.1	76.6	87	71.9	0	0	---	0.00	30.138 
04:25	76.1	76.1	76.6	87	71.9	0	0	---	0.00	30.138 
04:30	76.0	76.0	76.4	87	71.8	0	0	---	0.00	30.139 
04:35	76.0	76.0	76.4	87	71.8	0	0	---	0.00	30.139 
04:40	76.0	76.0	76.4	87	71.8	0	0	---	0.00	30.139 
04:45	76.0	76.0	76.4	87	71.8	0	0	---	0.00	30.136 
04:50	76.0	76.0	76.4	87	71.8	0	0	---	0.00	30.136 
04:55	76.0	76.0	76.4	87	71.8	0	0	---	0.00	30.136 
05:00	76.0	76.0	76.4	87	71.8	0	0	---	0.00	30.130 
05:05	76.0	76.0	76.4	87	71.8	0	0	---	0.00	30.130 
05:10	76.0	76.0	76.4	87	71.8	0	0	---	0.00	30.130 
05:15	75.8	75.8	76.0	87	71.6	0	0	---	0.00	30.125 
05:20	75.6	75.6	75.6	87	71.4	0	0	---	0.00	30.125 
05:25	75.6	75.6	75.6	87	71.4	0	0	---	0.00	30.125 
05:30	75.4	75.4	75.3	87	71.2	0	0	---	0.00	30.123 
05:35	75.4	75.4	75.3	87	71.2	0	0	---	0.00	30.123 
05:40	75.3	75.3	75.1	87	71.2	0	0	---	0.00	30.123 
05:45	75.3	75.3	75.1	87	71.2	0	0	---	0.00	30.125 
05:50	75.3	75.3	75.1	87	71.2	0	0	---	0.00	30.125 
05:55	75.1	75.1	74.7	87	71.0	0	0	---	0.00	30.125 
06:00	74.9	74.9	74.9	87	70.8	0	0	---	0.00	30.127 
06:05	74.9	74.9	74.9	87	70.8	0	0	---	0.00	30.127 
06:10	74.7	74.7	74.7	88	70.9	0	0	---	0.00	30.127 
06:15	74.6	74.6	74.6	88	70.8	0	0	---	0.00	30.128 
06:20	74.6	74.6	74.6	88	70.8	0	0	---	0.00	30.128 
06:25	74.4	74.4	74.4	88	70.6	0	0	---	0.00	30.128 
06:30	74.4	74.4	74.4	88	70.6	0	0	---	0.00	30.128 
06:35	74.4	74.4	74.4	88	70.6	0	0	---	0.00	30.128 
06:40	74.2	74.2	74.2	88	70.4	0	0	---	0.00	30.128 
06:45	74.2	74.2	74.2	88	70.4	0	0	---	0.00	30.131 
06:50	74.4	74.4	74.4	89	70.9	0	0	---	0.00	30.131 
06:55	74.4	74.4	74.4	89	70.9	0	0	---	0.00	30.131 
07:00	74.4	74.4	74.4	89	70.9	0	0	---	0.00	30.131 
07:05	74.6	74.6	74.6	89	71.1	0	0	---	0.00	30.131 
07:10	74.7	74.7	74.7	89	71.2	0	0	---	0.00	30.131 
07:15	74.9	74.9	74.9	89	71.4	0	0	---	0.00	30.130 
07:20	75.3	75.3	75.0	88	71.5	0	0	---	0.00	30.130 
07:25	75.4	75.4	75.1	88	71.6	0	1	270	0.00	30.130 
07:30	75.8	75.8	76.0	87	71.6	0	1	---	0.00	30.126 
07:35	76.3	76.3	77.0	86	71.8	0	1	270	0.00	30.126 
07:40	76.7	76.7	77.8	85	71.8	0	1	270	0.00	30.126 
07:45	77.0	77.0	78.4	84	71.8	0	0	---	0.00	30.127 
07:50	77.4	77.4	79.2	84	72.2	0	0	---	0.00	30.127 
07:55	77.9	77.9	80.2	83	72.3	0	1	270	0.00	30.127 
08:00	78.3	78.3	80.9	81	72.0	0	1	270	0.00	30.130 
08:05	78.6	78.6	81.4	80	71.9	0	2	270	0.00	30.130 
08:10	79.0	79.0	82.1	79	71.9	0	2	270	0.00	30.130 
08:15	79.6	79.6	83.3	79	72.5	0	1	270	0.00	30.130 
08:20	79.8	79.8	83.6	78	72.3	0	1	270	0.00	30.130 
08:25	80.3	80.3	84.4	77	72.4	0	1	270	0.00	30.130 
08:30	80.7	80.7	85.1	76	72.4	0	2	270	0.00	30.128 
08:35	80.9	80.9	85.3	75	72.2	1	2	270	0.00	30.128 
08:40	81.2	81.2	85.9	75	72.5	1	2	270	0.00	30.128 
08:45	81.4	81.4	86.3	75	72.7	1	3	270	0.00	30.126 
08:50	81.6	81.6	86.5	74	72.5	1	2	270	0.00	30.126 
08:55	81.8	81.8	86.9	74	72.7	1	3	270	0.00	30.126 
09:00	82.0	82.0	87.1	73	72.5	1	3	270	0.00	30.132 
09:05	82.4	82.4	87.9	73	72.9	1	3	270	0.00	30.132 
09:10	82.6	82.6	88.4	73	73.0	0	2	270	0.00	30.132 
09:15	83.0	83.0	89.2	73	73.4	0	2	270	0.00	30.134 
09:20	83.4	83.4	89.5	71	73.0	1	2	270	0.00	30.134 
09:25	83.6	83.6	89.9	71	73.2	0	2	270	0.00	30.134 
09:30	84.0	84.0	90.5	70	73.1	0	2	270	0.00	30.133 
09:35	84.3	84.3	91.1	70	73.4	0	2	270	0.00	30.133 
09:40	84.5	84.5	91.2	69	73.2	1	3	270	0.00	30.133 
09:45	84.7	84.7	91.3	68	72.9	1	2	270	0.00	30.126 
09:50	85.1	85.1	92.6	69	73.8	0	1	270	0.00	30.126 
09:55	85.5	85.5	93.5	69	74.1	0	1	270	0.00	30.126 
10:00	85.5	85.5	92.3	66	72.8	1	3	270	0.00	30.125 
10:05	85.7	85.7	92.7	66	73.0	1	2	338	0.00	30.125 
10:10	86.1	86.1	94.0	67	73.8	1	3	338	0.00	30.125 
10:15	86.1	86.1	93.6	66	73.4	1	3	270	0.00	30.125 
10:20	86.3	86.3	93.2	64	72.7	1	4	270	0.00	30.125 
10:25	86.5	86.5	93.7	64	72.8	2	5	270	0.00	30.125 
10:30	86.7	86.7	94.5	65	73.5	1	3	270	0.00	30.119 
10:35	87.0	87.0	95.2	65	73.8	1	3	270	0.00	30.119 
10:40	87.2	87.2	95.2	64	73.5	1	3	270	0.00	30.119 
10:45	87.4	87.4	95.2	63	73.2	1	2	270	0.00	30.116 
10:50	87.6	87.6	95.7	63	73.4	1	2	270	0.00	30.116 
10:55	87.8	87.8	95.6	62	73.1	1	3	270	0.00	30.116 
11:00	88.0	88.0	96.1	62	73.3	1	3	270	0.00	30.116 
11:05	88.2	88.2	95.6	60	72.5	1	3	270	0.00	30.116 
11:10	88.6	88.6	97.5	62	73.9	1	3	270	0.00	30.116 
11:15	88.8	88.8	96.9	60	73.1	1	3	270	0.00	30.116 
11:20	88.6	88.6	96.0	59	72.4	1	4	292	0.00	30.116 
11:25	88.6	88.6	96.5	60	72.9	1	2	292	0.00	30.116 
11:30	88.4	88.4	95.5	59	72.2	1	4	292	0.00	30.119 
11:35	88.6	88.6	96.5	60	72.9	1	2	292	0.00	30.119 
11:40	89.0	89.0	97.4	60	73.3	1	2	292	0.00	30.119 
11:45	89.7	89.7	98.4	59	73.4	1	3	292	0.00	30.107 
11:50	89.5	89.5	97.4	58	72.7	2	4	292	0.00	30.107 
11:55	88.8	88.8	96.4	59	72.6	1	3	292	0.00	30.107 
12:00	89.0	89.0	96.8	59	72.8	1	3	292	0.00	30.108 
12:05	89.5	89.5	98.0	59	73.2	1	3	292	0.00	30.108 
12:10	90.1	90.1	99.4	59	73.8	1	4	292	0.00	30.108 
12:15	90.1	90.1	98.8	58	73.3	1	3	315	0.00	30.105 
12:20	90.5	90.5	99.2	57	73.1	1	4	315	0.00	30.105 
12:25	90.5	90.5	98.6	56	72.6	1	3	270	0.00	30.105 
12:30	90.7	90.7	99.1	56	72.8	1	2	270	0.00	30.104 
12:35	91.2	91.2	100.2	56	73.3	1	3	270	0.00	30.104 
12:40	90.7	90.7	98.5	55	72.3	1	3	270	0.00	30.104 
12:45	90.7	90.7	99.1	56	72.8	1	3	270	0.00	30.102 
12:50	91.2	91.2	99.6	55	72.7	1	3	270	0.00	30.102 
12:55	91.4	91.4	100.1	55	72.9	2	4	270	0.00	30.102 
13:00	91.2	91.2	99.6	55	72.7	2	4	270	0.00	30.101 
13:05	91.0	91.0	99.7	56	73.1	1	4	270	0.00	30.101 
13:10	89.9	89.9	97.3	56	72.1	3	4	292	0.00	30.101 
13:15	89.7	89.7	97.9	58	72.9	2	4	292	0.00	30.097 
13:20	90.1	90.1	98.3	57	72.8	2	5	292	0.00	30.097 
13:25	90.5	90.5	98.1	55	72.1	2	4	270	0.00	30.097 
13:30	91.0	91.0	98.1	53	71.4	2	4	270	0.00	30.089 
13:35	91.2	91.2	99.0	54	72.2	1	3	270	0.00	30.089 
13:40	91.4	91.4	99.5	54	72.4	2	5	270	0.00	30.089 
13:45	91.4	91.4	99.5	54	72.4	1	4	292	0.00	30.083 
13:50	91.6	91.6	99.4	53	72.0	1	3	270	0.00	30.083 
13:55	91.4	91.4	99.5	54	72.4	1	4	338	0.00	30.083 
14:00	90.7	90.7	96.9	52	70.6	1	3	338	0.00	30.074 
14:05	91.0	91.0	99.7	56	73.1	2	4	292	0.00	30.074 
14:10	91.2	91.2	99.6	55	72.7	1	3	292	0.00	30.074 
14:15	91.4	91.4	98.9	53	71.8	1	4	292	0.00	30.071 
14:20	91.2	91.2	98.0	52	71.1	1	3	292	0.00	30.071 
14:25	91.6	91.6	98.8	52	71.4	2	4	292	0.00	30.071 
14:30	91.8	91.8	98.7	51	71.0	2	5	292	0.00	30.067 
14:35	92.1	92.1	98.2	49	70.1	2	4	292	0.00	30.067 
14:40	92.3	92.3	99.2	50	70.9	2	4	292	0.00	30.067 
14:45	91.8	91.8	98.7	51	71.0	1	4	292	0.00	30.068 
14:50	91.4	91.4	97.3	50	70.1	2	6	292	0.00	30.068 
14:55	91.6	91.6	99.4	53	72.0	1	3	270	0.00	30.068 
15:00	92.1	92.1	101.1	54	73.0	1	2	270	0.00	30.069 
15:05	92.5	92.5	100.2	51	71.7	2	5	270	0.00	30.069 
15:10	92.3	92.3	97.6	47	69.1	2	4	270	0.00	30.069 
15:15	92.1	92.1	98.2	49	70.1	1	3	270	0.00	30.064 
15:20	91.8	91.8	99.2	52	71.6	1	4	270	0.00	30.064 
15:25	91.6	91.6	97.7	50	70.3	2	5	270	0.00	30.064 
15:30	91.8	91.8	97.1	48	69.3	2	5	315	0.00	30.058 
15:35	91.8	91.8	97.6	49	69.9	2	5	270	0.00	30.058 
15:40	91.6	91.6	97.7	50	70.3	1	5	270	0.00	30.058 
15:45	92.1	92.1	98.2	49	70.1	2	5	292	0.00	30.050 
15:50	92.1	92.1	99.3	51	71.3	1	3	315	0.00	30.050 
15:55	92.3	92.3	99.2	50	70.9	1	4	338	0.00	30.050 
16:00	92.7	92.7	99.4	49	70.7	1	3	270	0.00	30.041 
16:05	92.9	92.9	98.7	47	69.6	1	4	292	0.00	30.041 
16:10	92.9	92.9	100.5	50	71.5	1	2	292	0.00	30.041 
16:15	92.7	92.7	98.9	48	70.1	1	4	292	0.00	30.033 
16:20	92.5	92.5	99.0	49	70.5	3	6	292	0.00	30.033 
16:25	92.5	92.5	99.6	50	71.1	3	7	292	0.00	30.033 
16:30	92.5	92.5	99.0	49	70.5	2	4	270	0.00	30.026 
16:35	92.7	92.7	99.4	49	70.7	2	4	270	0.00	30.026 
16:40	92.7	92.7	98.9	48	70.1	2	4	270	0.00	30.026 
16:45	92.9	92.9	99.3	48	70.3	2	4	292	0.00	30.023 
16:50	93.2	93.2	99.4	47	69.9	1	2	270	0.00	30.023 
16:55	92.7	92.7	99.4	49	70.7	1	3	270	0.00	30.023 
17:00	92.9	92.9	100.5	50	71.5	0	3	270	0.00	30.013 
17:05	93.4	93.4	99.8	47	70.1	1	4	270	0.00	30.013 
17:10	93.6	93.6	100.2	47	70.3	1	2	270	0.00	30.013 
17:15	93.6	93.6	99.6	46	69.7	1	2	270	0.00	30.010 
17:20	93.6	93.6	100.2	47	70.3	2	5	270	0.00	30.010 
17:25	93.2	93.2	99.4	47	69.9	1	4	270	0.00	30.010 
17:30	92.3	92.3	98.6	49	70.3	1	3	270	0.00	30.010 
17:35	91.4	91.4	97.3	50	70.1	1	2	270	0.00	30.010 
17:40	91.4	91.4	97.3	50	70.1	0	2	270	0.00	30.010 
17:45	91.2	91.2	97.4	51	70.5	1	4	270	0.00	30.010 
17:50	91.0	91.0	97.5	52	70.9	0	2	270	0.00	30.010 
17:55	91.2	91.2	97.4	51	70.5	0	2	270	0.00	30.010 
18:00	91.6	91.6	97.7	50	70.3	1	3	270	0.00	29.998 
18:05	91.8	91.8	98.1	50	70.5	1	2	270	0.00	29.998 
18:10	91.4	91.4	97.3	50	70.1	0	1	270	0.00	29.998 
18:15	91.2	91.2	97.4	51	70.5	1	2	270	0.00	29.995 
18:20	91.2	91.2	97.4	51	70.5	1	2	270	0.00	29.995 
18:25	91.2	91.2	96.9	50	69.9	1	3	270	0.00	29.995 
18:30	90.7	90.7	95.9	50	69.5	1	4	270	0.00	29.985 
18:35	90.5	90.5	95.5	50	69.3	1	3	270	0.00	29.985 
18:40	90.7	90.7	96.4	51	70.0	0	2	270	0.00	29.985 
18:45	90.7	90.7	95.9	50	69.5	1	3	270	0.00	29.984 
18:50	90.7	90.7	95.9	50	69.5	1	3	270	0.00	29.984 
18:55	90.5	90.5	96.0	51	69.9	1	3	270	0.00	29.984 
19:00	90.5	90.5	97.0	53	71.0	0	2	270	0.00	29.983 
19:05	90.5	90.5	96.5	52	70.4	1	2	270	0.00	29.983 
19:10	90.5	90.5	96.0	51	69.9	0	2	270	0.00	29.983 
19:15	90.3	90.3	95.6	51	69.7	1	2	270	0.00	29.978 
19:20	90.1	90.1	95.7	52	70.1	0	2	270	0.00	29.978 
19:25	89.7	89.7	94.9	52	69.7	0	2	270	0.00	29.978 
19:30	89.5	89.5	95.0	53	70.1	1	3	270	0.00	29.978 
19:35	89.5	89.5	95.5	54	70.6	0	2	270	0.00	29.978 
19:40	89.3	89.3	94.6	53	69.9	1	3	270	0.00	29.978 
19:45	89.3	89.3	94.6	53	69.9	0	1	270	0.00	29.979 
19:50	89.0	89.0	94.5	54	70.2	0	1	270	0.00	29.979 
19:55	89.0	89.0	94.5	54	70.2	1	3	270	0.00	29.979 
20:00	88.8	88.8	94.1	54	70.0	0	2	292	0.00	29.974 
20:05	88.8	88.8	94.1	54	70.0	0	2	292	0.00	29.974 
20:10	88.6	88.6	93.7	54	69.8	0	2	292	0.00	29.974 
20:15	88.4	88.4	93.3	54	69.6	0	2	292	0.00	29.973 
20:20	88.4	88.4	93.3	54	69.6	0	1	292	0.00	29.973 
20:25	88.2	88.2	92.9	54	69.4	0	1	292	0.00	29.973 
20:30	88.0	88.0	93.0	55	69.8	0	1	292	0.00	29.975 
20:35	87.8	87.8	93.0	56	70.1	0	1	292	0.00	29.975 
20:40	87.6	87.6	92.6	56	69.9	0	0	---	0.00	29.975 
20:45	87.4	87.4	92.6	57	70.3	0	1	292	0.00	29.973 
20:50	87.2	87.2	92.3	57	70.1	0	1	292	0.00	29.973 
20:55	87.0	87.0	91.9	57	69.9	0	1	292	0.00	29.973 
21:00	86.5	86.5	91.3	58	69.9	0	1	292	0.00	29.976 
21:05	86.3	86.3	90.9	58	69.7	0	0	---	0.00	29.976 
21:10	86.1	86.1	90.9	59	70.1	0	0	---	0.00	29.976 
21:15	85.7	85.7	90.5	60	70.2	0	0	---	0.00	29.975 
21:20	85.3	85.3	89.8	60	69.8	0	0	---	0.00	29.975 
21:25	85.1	85.1	89.8	61	70.1	0	0	---	0.00	29.975 
21:30	84.9	84.9	89.7	62	70.4	0	0	---	0.00	29.976 
21:35	84.7	84.7	89.3	62	70.2	0	0	---	0.00	29.976 
21:40	84.3	84.3	88.9	63	70.3	0	0	---	0.00	29.976 
21:45	84.1	84.1	88.8	64	70.6	0	0	---	0.00	29.978 
21:50	84.0	84.0	88.9	65	70.9	0	0	---	0.00	29.978 
21:55	83.6	83.6	88.2	65	70.6	0	0	---	0.00	29.978 
22:00	83.4	83.4	88.1	66	70.8	0	0	---	0.00	29.978 
22:05	83.2	83.2	87.7	66	70.6	0	0	---	0.00	29.978 
22:10	83.0	83.0	87.6	67	70.9	0	0	---	0.00	29.978 
22:15	82.8	82.8	87.5	68	71.1	0	0	---	0.00	29.983 
22:20	82.6	82.6	87.3	69	71.4	0	0	---	0.00	29.983 
22:25	82.2	82.2	86.6	69	71.0	0	0	---	0.00	29.983 
22:30	82.2	82.2	86.6	69	71.0	0	0	---	0.00	29.986 
22:35	82.0	82.0	86.2	69	70.8	0	0	---	0.00	29.986 
22:40	82.0	82.0	86.4	70	71.2	0	0	---	0.00	29.986 
22:45	82.0	82.0	86.4	70	71.2	0	0	---	0.00	29.987 
22:50	81.8	81.8	86.3	71	71.5	0	0	---	0.00	29.987 
22:55	81.6	81.6	85.9	71	71.3	0	0	---	0.00	29.987 
23:00	81.6	81.6	86.1	72	71.7	0	0	---	0.00	29.983 
23:05	81.4	81.4	85.7	72	71.5	0	0	---	0.00	29.983 
23:10	81.2	81.2	85.5	73	71.7	0	0	---	0.00	29.983 
23:15	81.2	81.2	85.5	73	71.7	0	0	---	0.00	29.980 
23:20	81.2	81.2	85.7	74	72.1	0	0	---	0.00	29.980 
23:25	81.2	81.2	85.7	74	72.1	0	0	---	0.00	29.980 
23:30	81.1	81.1	85.5	74	72.0	0	0	---	0.00	29.979 
23:35	80.9	80.9	85.3	75	72.2	0	0	---	0.00	29.979 
23:40	80.9	80.9	85.5	76	72.6	0	0	---	0.00	29.979 
23:45	80.7	80.7	85.1	76	72.4	0	0	---	0.00	29.977 
23:50	80.5	80.5	84.8	77	72.6	0	0	---	0.00	29.977 
23:55	80.3	80.3	84.4	77	72.4	0	0	---	0.00	29.977 

CoCoRaHS
IN-AL-39
A2 Web Hosting
Creative Commons License
GoDaddy
search engine by freefind advanced

loaded 2018-11-20 08:17:48 • last modified 2010-11-18 10:43:29
Privacy PolicyDisclaimer
• wx.awcolley.com is powered by PmWiki v.2002016 •
• all content (unless otherwise noted) © 2018 A W Colley